sensor_id;sensor_type;location;lat;lon;timestamp;pressure;altitude;pressure_sealevel;temperature;humidity
28510;BME280;15723;55.684;37.928;2022-10-19T00:02:15;99455.38;;;10.03;72.71
28510;BME280;15723;55.684;37.928;2022-10-19T00:04:42;99462.22;;;10.09;72.65
28510;BME280;15723;55.684;37.928;2022-10-19T00:07:09;99446.66;;;9.98;72.29
28510;BME280;15723;55.684;37.928;2022-10-19T00:09:35;99453.28;;;9.94;72.93
28510;BME280;15723;55.684;37.928;2022-10-19T00:12:01;99448.81;;;9.93;72.74
28510;BME280;15723;55.684;37.928;2022-10-19T00:14:28;99450.22;;;9.86;72.64
28510;BME280;15723;55.684;37.928;2022-10-19T00:16:54;99457.16;;;9.90;73.02
28510;BME280;15723;55.684;37.928;2022-10-19T00:19:25;99446.09;;;9.93;72.50
28510;BME280;15723;55.684;37.928;2022-10-19T00:21:51;99429.31;;;10.01;72.46
28510;BME280;15723;55.684;37.928;2022-10-19T00:24:18;99429.84;;;9.81;72.79
28510;BME280;15723;55.684;37.928;2022-10-19T00:26:45;99425.31;;;10.07;72.22
28510;BME280;15723;55.684;37.928;2022-10-19T00:29:13;99412.63;;;10.20;71.95
28510;BME280;15723;55.684;37.928;2022-10-19T00:31:39;99409.50;;;10.13;72.34
28510;BME280;15723;55.684;37.928;2022-10-19T00:34:06;99407.00;;;10.10;72.33
28510;BME280;15723;55.684;37.928;2022-10-19T00:36:36;99417.47;;;10.02;72.67
28510;BME280;15723;55.684;37.928;2022-10-19T00:39:04;99419.34;;;10.14;72.05
28510;BME280;15723;55.684;37.928;2022-10-19T00:41:33;99423.78;;;10.02;72.23
28510;BME280;15723;55.684;37.928;2022-10-19T00:46:41;99397.16;;;10.22;71.74
28510;BME280;15723;55.684;37.928;2022-10-19T00:49:16;99408.50;;;10.14;71.74
28510;BME280;15723;55.684;37.928;2022-10-19T00:51:48;99394.72;;;10.17;71.46
28510;BME280;15723;55.684;37.928;2022-10-19T00:54:16;99389.94;;;9.83;72.12
28510;BME280;15723;55.684;37.928;2022-10-19T00:56:45;99382.34;;;10.00;72.48
28510;BME280;15723;55.684;37.928;2022-10-19T00:59:14;99378.06;;;10.23;71.47
28510;BME280;15723;55.684;37.928;2022-10-19T01:01:43;99387.25;;;10.08;71.16
28510;BME280;15723;55.684;37.928;2022-10-19T01:04:11;99393.31;;;10.12;71.25
28510;BME280;15723;55.684;37.928;2022-10-19T01:06:38;99392.69;;;10.21;71.44
28510;BME280;15723;55.684;37.928;2022-10-19T01:09:06;99397.47;;;10.30;71.18
28510;BME280;15723;55.684;37.928;2022-10-19T01:14:46;99406.75;;;10.00;71.51
28510;BME280;15723;55.684;37.928;2022-10-19T01:20:32;99403.72;;;9.92;71.51
28510;BME280;15723;55.684;37.928;2022-10-19T01:26:20;99388.09;;;9.83;71.75
28510;BME280;15723;55.684;37.928;2022-10-19T01:29:13;99382.34;;;10.00;71.45
28510;BME280;15723;55.684;37.928;2022-10-19T01:42:54;99393.53;;;10.09;71.40
28510;BME280;15723;55.684;37.928;2022-10-19T01:45:39;99388.53;;;9.90;71.47
28510;BME280;15723;55.684;37.928;2022-10-19T01:48:18;99395.91;;;10.00;71.13
28510;BME280;15723;55.684;37.928;2022-10-19T01:51:09;99370.31;;;9.92;71.73
28510;BME280;15723;55.684;37.928;2022-10-19T01:53:45;99363.47;;;10.37;70.79
28510;BME280;15723;55.684;37.928;2022-10-19T01:56:13;99359.16;;;10.34;70.96
28510;BME280;15723;55.684;37.928;2022-10-19T01:58:44;99353.50;;;10.38;70.52
28510;BME280;15723;55.684;37.928;2022-10-19T02:01:13;99350.16;;;10.34;70.82
28510;BME280;15723;55.684;37.928;2022-10-19T02:03:42;99337.97;;;10.40;70.36
28510;BME280;15723;55.684;37.928;2022-10-19T02:06:10;99337.03;;;10.15;71.48
28510;BME280;15723;55.684;37.928;2022-10-19T02:08:41;99328.56;;;10.32;71.07
28510;BME280;15723;55.684;37.928;2022-10-19T02:11:09;99328.88;;;10.15;71.99
28510;BME280;15723;55.684;37.928;2022-10-19T02:13:36;99329.53;;;10.19;72.07
28510;BME280;15723;55.684;37.928;2022-10-19T02:16:08;99316.41;;;10.13;72.02
28510;BME280;15723;55.684;37.928;2022-10-19T02:18:43;99309.72;;;10.06;72.36
28510;BME280;15723;55.684;37.928;2022-10-19T02:21:10;99301.00;;;10.00;72.23
28510;BME280;15723;55.684;37.928;2022-10-19T02:23:37;99309.13;;;10.39;71.25
28510;BME280;15723;55.684;37.928;2022-10-19T02:26:04;99299.47;;;10.34;71.59
28510;BME280;15723;55.684;37.928;2022-10-19T02:28:31;99305.66;;;10.37;71.11
28510;BME280;15723;55.684;37.928;2022-10-19T02:30:58;99300.22;;;10.49;71.00
28510;BME280;15723;55.684;37.928;2022-10-19T02:33:26;99306.91;;;10.56;70.76
28510;BME280;15723;55.684;37.928;2022-10-19T02:35:54;99302.34;;;10.20;72.01
28510;BME280;15723;55.684;37.928;2022-10-19T02:38:22;99291.66;;;10.17;72.46
28510;BME280;15723;55.684;37.928;2022-10-19T02:41:06;99297.00;;;10.19;72.05
28510;BME280;15723;55.684;37.928;2022-10-19T02:43:36;99299.34;;;10.36;71.71
28510;BME280;15723;55.684;37.928;2022-10-19T02:46:20;99299.28;;;10.25;71.01
28510;BME280;15723;55.684;37.928;2022-10-19T02:48:49;99293.97;;;10.11;72.23
28510;BME280;15723;55.684;37.928;2022-10-19T02:51:36;99291.69;;;9.41;74.59
28510;BME280;15723;55.684;37.928;2022-10-19T02:54:05;99277.59;;;10.12;72.17
28510;BME280;15723;55.684;37.928;2022-10-19T02:56:34;99272.81;;;10.16;71.87
28510;BME280;15723;55.684;37.928;2022-10-19T02:59:01;99276.75;;;9.74;72.97
28510;BME280;15723;55.684;37.928;2022-10-19T03:01:28;99280.84;;;9.92;73.01
28510;BME280;15723;55.684;37.928;2022-10-19T03:03:54;99282.03;;;9.50;74.03
28510;BME280;15723;55.684;37.928;2022-10-19T03:06:20;99277.94;;;9.82;73.54
28510;BME280;15723;55.684;37.928;2022-10-19T03:08:47;99281.13;;;9.24;75.07
28510;BME280;15723;55.684;37.928;2022-10-19T03:11:13;99282.94;;;9.11;75.17
28510;BME280;15723;55.684;37.928;2022-10-19T03:13:40;99286.94;;;9.05;75.60
28510;BME280;15723;55.684;37.928;2022-10-19T03:16:09;99282.00;;;9.24;75.56
28510;BME280;15723;55.684;37.928;2022-10-19T03:18:36;99286.22;;;9.16;75.40
28510;BME280;15723;55.684;37.928;2022-10-19T03:21:08;99288.13;;;8.47;77.15
28510;BME280;15723;55.684;37.928;2022-10-19T03:23:37;99284.53;;;8.46;77.38
28510;BME280;15723;55.684;37.928;2022-10-19T03:26:05;99272.97;;;8.71;76.61
28510;BME280;15723;55.684;37.928;2022-10-19T03:28:32;99274.44;;;8.90;76.29
28510;BME280;15723;55.684;37.928;2022-10-19T03:30:58;99269.94;;;9.03;75.58
28510;BME280;15723;55.684;37.928;2022-10-19T03:33:25;99265.13;;;9.33;74.26
28510;BME280;15723;55.684;37.928;2022-10-19T03:36:24;99258.38;;;9.26;74.57
28510;BME280;15723;55.684;37.928;2022-10-19T03:38:56;99267.38;;;9.27;73.93
28510;BME280;15723;55.684;37.928;2022-10-19T03:41:25;99262.09;;;9.38;73.51
28510;BME280;15723;55.684;37.928;2022-10-19T03:43:51;99258.84;;;9.46;73.46
28510;BME280;15723;55.684;37.928;2022-10-19T03:46:18;99264.78;;;9.25;74.04
28510;BME280;15723;55.684;37.928;2022-10-19T03:48:45;99257.66;;;9.50;74.13
28510;BME280;15723;55.684;37.928;2022-10-19T03:51:14;99251.94;;;9.67;73.39
28510;BME280;15723;55.684;37.928;2022-10-19T03:53:41;99256.25;;;9.44;74.33
28510;BME280;15723;55.684;37.928;2022-10-19T03:56:16;99254.41;;;9.45;73.66
28510;BME280;15723;55.684;37.928;2022-10-19T03:58:45;99244.44;;;9.83;72.49
28510;BME280;15723;55.684;37.928;2022-10-19T04:01:17;99243.56;;;9.83;72.41
28510;BME280;15723;55.684;37.928;2022-10-19T04:03:44;99237.50;;;9.79;72.25
28510;BME280;15723;55.684;37.928;2022-10-19T04:06:16;99230.03;;;9.70;71.42
28510;BME280;15723;55.684;37.928;2022-10-19T04:08:44;99230.16;;;9.30;73.41
28510;BME280;15723;55.684;37.928;2022-10-19T04:11:14;99223.50;;;9.60;72.90
28510;BME280;15723;55.684;37.928;2022-10-19T04:13:41;99218.00;;;9.49;73.78
28510;BME280;15723;55.684;37.928;2022-10-19T04:16:09;99216.03;;;9.25;73.94
28510;BME280;15723;55.684;37.928;2022-10-19T04:18:38;99209.97;;;9.22;74.20
28510;BME280;15723;55.684;37.928;2022-10-19T04:21:05;99211.81;;;9.59;73.58
28510;BME280;15723;55.684;37.928;2022-10-19T04:23:33;99207.91;;;9.25;74.71
28510;BME280;15723;55.684;37.928;2022-10-19T04:26:06;99196.44;;;9.09;74.88
28510;BME280;15723;55.684;37.928;2022-10-19T04:28:34;99204.75;;;9.06;74.39
28510;BME280;15723;55.684;37.928;2022-10-19T04:31:04;99193.72;;;9.47;73.82
28510;BME280;15723;55.684;37.928;2022-10-19T04:33:32;99196.34;;;9.36;73.88
28510;BME280;15723;55.684;37.928;2022-10-19T04:36:03;99200.44;;;9.16;74.63
28510;BME280;15723;55.684;37.928;2022-10-19T04:38:30;99198.41;;;9.45;73.74
28510;BME280;15723;55.684;37.928;2022-10-19T04:41:02;99199.41;;;8.92;75.57
28510;BME280;15723;55.684;37.928;2022-10-19T04:43:29;99198.69;;;9.02;75.13
28510;BME280;15723;55.684;37.928;2022-10-19T04:45:55;99207.91;;;9.25;74.39
28510;BME280;15723;55.684;37.928;2022-10-19T04:48:22;99196.44;;;9.73;73.13
28510;BME280;15723;55.684;37.928;2022-10-19T04:50:48;99198.19;;;9.48;73.92
28510;BME280;15723;55.684;37.928;2022-10-19T04:53:18;99195.03;;;9.67;73.50
28510;BME280;15723;55.684;37.928;2022-10-19T04:55:45;99194.81;;;9.57;74.03
28510;BME280;15723;55.684;37.928;2022-10-19T04:58:11;99192.66;;;9.37;74.19
28510;BME280;15723;55.684;37.928;2022-10-19T05:00:38;99187.22;;;9.50;74.39
28510;BME280;15723;55.684;37.928;2022-10-19T05:03:04;99180.72;;;9.52;74.11
28510;BME280;15723;55.684;37.928;2022-10-19T05:05:31;99181.81;;;9.37;74.57
28510;BME280;15723;55.684;37.928;2022-10-19T05:07:58;99180.75;;;9.39;74.84
28510;BME280;15723;55.684;37.928;2022-10-19T05:10:24;99174.91;;;9.33;74.17
28510;BME280;15723;55.684;37.928;2022-10-19T05:12:50;99184.84;;;9.58;74.29
28510;BME280;15723;55.684;37.928;2022-10-19T05:15:16;99178.94;;;9.89;73.26
28510;BME280;15723;55.684;37.928;2022-10-19T05:17:43;99179.84;;;9.77;73.48
28510;BME280;15723;55.684;37.928;2022-10-19T05:20:09;99182.53;;;9.64;74.29
28510;BME280;15723;55.684;37.928;2022-10-19T05:22:38;99173.78;;;9.74;73.61
28510;BME280;15723;55.684;37.928;2022-10-19T05:25:05;99184.63;;;9.48;74.28
28510;BME280;15723;55.684;37.928;2022-10-19T05:27:32;99188.28;;;9.73;74.05
28510;BME280;15723;55.684;37.928;2022-10-19T05:29:58;99179.09;;;10.12;72.77
28510;BME280;15723;55.684;37.928;2022-10-19T05:32:26;99166.41;;;10.12;72.24
28510;BME280;15723;55.684;37.928;2022-10-19T05:34:53;99172.59;;;10.01;72.95
28510;BME280;15723;55.684;37.928;2022-10-19T05:37:19;99178.19;;;9.87;73.06
28510;BME280;15723;55.684;37.928;2022-10-19T05:39:46;99172.94;;;9.97;72.94
28510;BME280;15723;55.684;37.928;2022-10-19T05:42:12;99167.16;;;10.01;72.92
28510;BME280;15723;55.684;37.928;2022-10-19T05:44:38;99164.25;;;10.41;72.15
28510;BME280;15723;55.684;37.928;2022-10-19T05:47:05;99174.06;;;10.31;72.12
28510;BME280;15723;55.684;37.928;2022-10-19T05:49:31;99169.59;;;10.30;71.78
28510;BME280;15723;55.684;37.928;2022-10-19T05:51:58;99171.72;;;10.14;71.39
28510;BME280;15723;55.684;37.928;2022-10-19T05:54:24;99168.63;;;10.31;71.50
28510;BME280;15723;55.684;37.928;2022-10-19T05:56:50;99175.41;;;10.13;72.01
28510;BME280;15723;55.684;37.928;2022-10-19T05:59:19;99173.47;;;10.02;71.81
28510;BME280;15723;55.684;37.928;2022-10-19T06:01:46;99158.91;;;10.16;71.35
28510;BME280;15723;55.684;37.928;2022-10-19T06:04:13;99156.78;;;9.95;72.25
28510;BME280;15723;55.684;37.928;2022-10-19T06:06:41;99160.22;;;10.10;71.71
28510;BME280;15723;55.684;37.928;2022-10-19T06:09:08;99155.28;;;9.91;72.64
28510;BME280;15723;55.684;37.928;2022-10-19T06:11:39;99147.78;;;9.95;72.37
28510;BME280;15723;55.684;37.928;2022-10-19T06:14:11;99150.13;;;10.12;72.08
28510;BME280;15723;55.684;37.928;2022-10-19T06:16:38;99158.25;;;9.76;72.35
28510;BME280;15723;55.684;37.928;2022-10-19T06:19:05;99156.41;;;10.13;72.02
28510;BME280;15723;55.684;37.928;2022-10-19T06:21:32;99155.69;;;9.98;73.21
28510;BME280;15723;55.684;37.928;2022-10-19T06:24:02;99160.56;;;10.06;72.94
28510;BME280;15723;55.684;37.928;2022-10-19T06:26:30;99145.38;;;10.03;72.63
28510;BME280;15723;55.684;37.928;2022-10-19T06:28:59;99144.38;;;10.17;71.96
28510;BME280;15723;55.684;37.928;2022-10-19T06:31:29;99136.16;;;10.06;71.91
28510;BME280;15723;55.684;37.928;2022-10-19T06:33:57;99135.81;;;10.10;72.15
28510;BME280;15723;55.684;37.928;2022-10-19T06:36:26;99134.19;;;10.20;71.63
28510;BME280;15723;55.684;37.928;2022-10-19T06:38:53;99144.31;;;10.06;72.01
28510;BME280;15723;55.684;37.928;2022-10-19T06:41:22;99139.50;;;10.46;70.94
28510;BME280;15723;55.684;37.928;2022-10-19T06:43:53;99149.34;;;10.23;71.87
28510;BME280;15723;55.684;37.928;2022-10-19T06:46:22;99149.28;;;10.36;71.50
28510;BME280;15723;55.684;37.928;2022-10-19T06:48:50;99144.91;;;10.46;70.95
28510;BME280;15723;55.684;37.928;2022-10-19T06:51:17;99145.56;;;10.49;70.64
28510;BME280;15723;55.684;37.928;2022-10-19T06:53:44;99143.06;;;10.46;70.48
28510;BME280;15723;55.684;37.928;2022-10-19T06:56:10;99135.16;;;10.43;71.00
28510;BME280;15723;55.684;37.928;2022-10-19T06:58:38;99133.09;;;10.47;70.91
28510;BME280;15723;55.684;37.928;2022-10-19T07:01:05;99133.72;;;10.50;70.53
28510;BME280;15723;55.684;37.928;2022-10-19T07:03:33;99130.63;;;10.44;70.89
28510;BME280;15723;55.684;37.928;2022-10-19T07:06:02;99125.50;;;10.39;70.97
28510;BME280;15723;55.684;37.928;2022-10-19T07:08:30;99119.28;;;10.26;71.41
28510;BME280;15723;55.684;37.928;2022-10-19T07:10:59;99116.38;;;10.40;70.99
28510;BME280;15723;55.684;37.928;2022-10-19T07:13:27;99115.59;;;10.27;71.41
28510;BME280;15723;55.684;37.928;2022-10-19T07:16:04;99120.84;;;9.81;73.19
28510;BME280;15723;55.684;37.928;2022-10-19T07:18:33;99117.78;;;10.22;72.13
28510;BME280;15723;55.684;37.928;2022-10-19T07:21:03;99119.44;;;10.12;72.47
28510;BME280;15723;55.684;37.928;2022-10-19T07:23:32;99112.41;;;10.33;72.56
28510;BME280;15723;55.684;37.928;2022-10-19T07:26:16;99108.69;;;10.58;72.00
28510;BME280;15723;55.684;37.928;2022-10-19T07:28:47;99110.41;;;10.24;72.38
28510;BME280;15723;55.684;37.928;2022-10-19T07:31:15;99113.59;;;10.42;72.27
28510;BME280;15723;55.684;37.928;2022-10-19T07:33:59;99114.50;;;10.29;71.89
28510;BME280;15723;55.684;37.928;2022-10-19T07:36:27;99108.00;;;10.19;73.30
28510;BME280;15723;55.684;37.928;2022-10-19T07:38:54;99106.47;;;10.52;72.53
28510;BME280;15723;55.684;37.928;2022-10-19T07:41:22;99106.94;;;10.46;72.04
28510;BME280;15723;55.684;37.928;2022-10-19T07:43:49;99105.38;;;10.65;71.63
28510;BME280;15723;55.684;37.928;2022-10-19T07:46:21;99109.41;;;10.49;72.07
28510;BME280;15723;55.684;37.928;2022-10-19T07:48:48;99110.53;;;10.22;72.63
28510;BME280;15723;55.684;37.928;2022-10-19T07:51:16;99114.78;;;10.38;71.81
28510;BME280;15723;55.684;37.928;2022-10-19T07:53:43;99113.88;;;10.26;72.99
28510;BME280;15723;55.684;37.928;2022-10-19T07:56:17;99110.75;;;10.43;72.48
28510;BME280;15723;55.684;37.928;2022-10-19T07:58:43;99111.72;;;10.42;73.07
28510;BME280;15723;55.684;37.928;2022-10-19T08:01:12;99117.03;;;10.44;73.16
28510;BME280;15723;55.684;37.928;2022-10-19T08:03:39;99116.63;;;10.72;73.17
28510;BME280;15723;55.684;37.928;2022-10-19T08:06:08;99115.75;;;10.60;72.71
28510;BME280;15723;55.684;37.928;2022-10-19T08:08:35;99119.06;;;10.53;73.59
28510;BME280;15723;55.684;37.928;2022-10-19T08:11:13;99113.63;;;10.05;74.39
28510;BME280;15723;55.684;37.928;2022-10-19T08:13:41;99108.25;;;10.16;74.43
28510;BME280;15723;55.684;37.928;2022-10-19T08:16:28;99112.88;;;10.51;73.50
28510;BME280;15723;55.684;37.928;2022-10-19T08:18:57;99117.44;;;10.50;73.19
28510;BME280;15723;55.684;37.928;2022-10-19T08:21:24;99127.47;;;10.13;73.77
28510;BME280;15723;55.684;37.928;2022-10-19T08:23:51;99118.44;;;10.25;74.03
28510;BME280;15723;55.684;37.928;2022-10-19T08:26:17;99115.63;;;10.38;74.55
28510;BME280;15723;55.684;37.928;2022-10-19T08:28:43;99118.69;;;10.10;73.99
28510;BME280;15723;55.684;37.928;2022-10-19T08:31:14;99112.69;;;10.17;74.95
28510;BME280;15723;55.684;37.928;2022-10-19T08:33:41;99112.94;;;10.01;74.33
28510;BME280;15723;55.684;37.928;2022-10-19T08:36:09;99106.09;;;10.56;73.36
28510;BME280;15723;55.684;37.928;2022-10-19T08:38:36;99108.66;;;10.82;72.24
28510;BME280;15723;55.684;37.928;2022-10-19T08:41:20;99103.00;;;11.07;71.36
28510;BME280;15723;55.684;37.928;2022-10-19T08:49:08;99104.66;;;10.63;72.81
28510;BME280;15723;55.684;37.928;2022-10-19T08:51:39;99106.34;;;11.00;72.29
28510;BME280;15723;55.684;37.928;2022-10-19T08:54:11;99110.94;;;10.64;72.52
28510;BME280;15723;55.684;37.928;2022-10-19T08:57:01;99101.91;;;10.99;71.54
28510;BME280;15723;55.684;37.928;2022-10-19T09:03:24;99102.16;;;10.60;72.45
28510;BME280;15723;55.684;37.928;2022-10-19T09:06:25;99095.13;;;10.58;71.47
28510;BME280;15723;55.684;37.928;2022-10-19T09:08:54;99095.00;;;10.59;71.88
28510;BME280;15723;55.684;37.928;2022-10-19T09:11:24;99093.97;;;10.84;71.36
28510;BME280;15723;55.684;37.928;2022-10-19T09:14:17;99090.44;;;10.60;71.27
28510;BME280;15723;55.684;37.928;2022-10-19T09:16:44;99087.97;;;10.57;71.29
28510;BME280;15723;55.684;37.928;2022-10-19T09:19:25;99082.47;;;10.34;71.54
28510;BME280;15723;55.684;37.928;2022-10-19T09:21:57;99091.53;;;10.46;72.71
28510;BME280;15723;55.684;37.928;2022-10-19T09:24:53;99095.03;;;10.12;73.44
28510;BME280;15723;55.684;37.928;2022-10-19T09:27:26;99092.16;;;10.26;73.39
28510;BME280;15723;55.684;37.928;2022-10-19T09:29:57;99107.22;;;10.30;73.36
28510;BME280;15723;55.684;37.928;2022-10-19T09:32:29;99108.03;;;10.43;73.51
28510;BME280;15723;55.684;37.928;2022-10-19T09:37:44;99104.66;;;10.16;73.59
28510;BME280;15723;55.684;37.928;2022-10-19T09:40:20;99102.53;;;10.56;73.17
28510;BME280;15723;55.684;37.928;2022-10-19T09:42:46;99104.59;;;10.87;72.09
28510;BME280;15723;55.684;37.928;2022-10-19T09:45:31;99098.78;;;10.81;73.13
28510;BME280;15723;55.684;37.928;2022-10-19T09:48:00;99107.25;;;10.17;73.50
28510;BME280;15723;55.684;37.928;2022-10-19T09:50:29;99101.19;;;10.61;72.53
28510;BME280;15723;55.684;37.928;2022-10-19T09:52:58;99102.94;;;10.39;72.85
28510;BME280;15723;55.684;37.928;2022-10-19T09:55:37;99097.06;;;10.91;71.35
28510;BME280;15723;55.684;37.928;2022-10-19T09:58:05;99104.66;;;10.75;71.63
28510;BME280;15723;55.684;37.928;2022-10-19T10:00:47;99110.50;;;10.81;71.21
28510;BME280;15723;55.684;37.928;2022-10-19T10:03:34;99108.50;;;10.72;71.18
28510;BME280;15723;55.684;37.928;2022-10-19T10:06:11;99107.69;;;10.48;71.38
28510;BME280;15723;55.684;37.928;2022-10-19T10:08:47;99114.97;;;10.93;70.97
28510;BME280;15723;55.684;37.928;2022-10-19T10:11:22;99105.16;;;10.69;71.08
28510;BME280;15723;55.684;37.928;2022-10-19T10:13:51;99104.09;;;10.82;70.31
28510;BME280;15723;55.684;37.928;2022-10-19T10:16:21;99108.50;;;10.72;70.18
28510;BME280;15723;55.684;37.928;2022-10-19T10:18:57;99099.44;;;10.49;71.42
28510;BME280;15723;55.684;37.928;2022-10-19T10:21:33;99103.25;;;10.23;71.04
28510;BME280;15723;55.684;37.928;2022-10-19T10:24:15;99106.50;;;10.63;71.43
28510;BME280;15723;55.684;37.928;2022-10-19T10:26:47;99109.59;;;10.34;71.68
28510;BME280;15723;55.684;37.928;2022-10-19T10:29:27;99111.38;;;10.47;71.56
28510;BME280;15723;55.684;37.928;2022-10-19T10:32:04;99110.53;;;10.46;72.04
28510;BME280;15723;55.684;37.928;2022-10-19T10:34:46;99119.16;;;10.51;71.64
28510;BME280;15723;55.684;37.928;2022-10-19T10:37:41;99119.72;;;10.20;72.46
28510;BME280;15723;55.684;37.928;2022-10-19T10:42:51;99132.22;;;10.46;71.80
28510;BME280;15723;55.684;37.928;2022-10-19T10:47:48;99115.31;;;10.43;73.10
28510;BME280;15723;55.684;37.928;2022-10-19T10:50:22;99109.56;;;10.11;73.66
28510;BME280;15723;55.684;37.928;2022-10-19T10:53:04;99123.38;;;10.08;73.62
28510;BME280;15723;55.684;37.928;2022-10-19T10:55:31;99114.72;;;10.50;72.81
28510;BME280;15723;55.684;37.928;2022-10-19T10:58:22;99111.09;;;10.02;74.88
28510;BME280;15723;55.684;37.928;2022-10-19T11:01:00;99099.06;;;10.06;74.93
28510;BME280;15723;55.684;37.928;2022-10-19T11:03:29;99104.03;;;10.12;74.55
28510;BME280;15723;55.684;37.928;2022-10-19T11:06:00;99100.22;;;10.39;74.50
28510;BME280;15723;55.684;37.928;2022-10-19T11:11:10;99115.81;;;10.48;74.19
28510;BME280;15723;55.684;37.928;2022-10-19T11:16:23;99119.06;;;10.29;73.41
28510;BME280;15723;55.684;37.928;2022-10-19T11:18:57;99112.88;;;10.27;72.78
28510;BME280;15723;55.684;37.928;2022-10-19T11:24:46;99104.66;;;10.75;71.72
28510;BME280;15723;55.684;37.928;2022-10-19T11:30:21;99091.03;;;10.99;70.77
28510;BME280;15723;55.684;37.928;2022-10-19T11:33:05;99094.09;;;10.83;71.97
28510;BME280;15723;55.684;37.928;2022-10-19T11:38:20;99091.91;;;11.10;69.24
28510;BME280;15723;55.684;37.928;2022-10-19T11:40:58;99080.28;;;10.86;70.81
28510;BME280;15723;55.684;37.928;2022-10-19T11:46:22;99069.44;;;10.86;70.95
28510;BME280;15723;55.684;37.928;2022-10-19T11:49:03;99078.81;;;11.04;71.06
28510;BME280;15723;55.684;37.928;2022-10-19T11:51:53;99085.78;;;10.73;71.32
28510;BME280;15723;55.684;37.928;2022-10-19T11:54:33;99086.78;;;10.72;71.48
28510;BME280;15723;55.684;37.928;2022-10-19T12:02:45;99082.16;;;11.08;70.23
28510;BME280;15723;55.684;37.928;2022-10-19T12:05:27;99092.31;;;11.17;69.48
28510;BME280;15723;55.684;37.928;2022-10-19T12:10:45;99089.97;;;11.35;68.77
28510;BME280;15723;55.684;37.928;2022-10-19T12:13:19;99086.63;;;11.31;68.04
28510;BME280;15723;55.684;37.928;2022-10-19T12:15:52;99103.25;;;11.04;68.91
28510;BME280;15723;55.684;37.928;2022-10-19T12:18:54;99106.41;;;10.76;69.79
28510;BME280;15723;55.684;37.928;2022-10-19T12:21:29;99110.22;;;10.73;70.03
28510;BME280;15723;55.684;37.928;2022-10-19T12:23:57;99104.00;;;10.25;71.25
28510;BME280;15723;55.684;37.928;2022-10-19T12:26:29;99108.56;;;10.24;70.77
28510;BME280;15723;55.684;37.928;2022-10-19T12:29:13;99110.03;;;10.52;70.60
28510;BME280;15723;55.684;37.928;2022-10-19T12:31:41;99109.69;;;10.33;71.28
28510;BME280;15723;55.684;37.928;2022-10-19T12:34:35;99107.25;;;10.76;70.73
28510;BME280;15723;55.684;37.928;2022-10-19T12:37:09;99108.25;;;10.40;69.69
28510;BME280;15723;55.684;37.928;2022-10-19T12:39:49;99114.09;;;10.82;68.81
28510;BME280;15723;55.684;37.928;2022-10-19T12:42:21;99113.97;;;10.94;68.38
28510;BME280;15723;55.684;37.928;2022-10-19T12:47:31;99112.13;;;10.49;69.77
28510;BME280;15723;55.684;37.928;2022-10-19T12:49:58;99112.44;;;10.68;69.75
28510;BME280;15723;55.684;37.928;2022-10-19T12:52:56;99113.06;;;10.72;69.42
28510;BME280;15723;55.684;37.928;2022-10-19T12:57:57;99115.63;;;10.62;68.46
28510;BME280;15723;55.684;37.928;2022-10-19T13:00:31;99111.91;;;10.63;69.18
28510;BME280;15723;55.684;37.928;2022-10-19T13:03:03;99112.88;;;10.86;68.67
28510;BME280;15723;55.684;37.928;2022-10-19T13:05:31;99118.78;;;10.45;69.59
28510;BME280;15723;55.684;37.928;2022-10-19T13:08:00;99122.03;;;10.61;68.77
28510;BME280;15723;55.684;37.928;2022-10-19T13:10:27;99123.53;;;10.76;69.06
28510;BME280;15723;55.684;37.928;2022-10-19T13:12:55;99119.63;;;10.80;68.78
28510;BME280;15723;55.684;37.928;2022-10-19T13:18:00;99128.13;;;10.76;68.99
28510;BME280;15723;55.684;37.928;2022-10-19T13:25:38;99117.22;;;10.64;68.28
28510;BME280;15723;55.684;37.928;2022-10-19T13:41:01;99139.66;;;10.55;68.77
28510;BME280;15723;55.684;37.928;2022-10-19T13:43:52;99136.69;;;10.58;68.13
28510;BME280;15723;55.684;37.928;2022-10-19T13:46:21;99130.94;;;10.74;68.57
28510;BME280;15723;55.684;37.928;2022-10-19T13:57:56;99139.53;;;10.92;68.05
28510;BME280;15723;55.684;37.928;2022-10-19T14:01:04;99147.19;;;10.15;70.01
28510;BME280;15723;55.684;37.928;2022-10-19T14:06:37;99145.97;;;10.19;70.33
28510;BME280;15723;55.684;37.928;2022-10-19T14:11:49;99158.59;;;10.20;71.08
28510;BME280;15723;55.684;37.928;2022-10-19T14:14:21;99156.78;;;9.95;71.54
28510;BME280;15723;55.684;37.928;2022-10-19T14:16:54;99155.34;;;10.02;71.60
28510;BME280;15723;55.684;37.928;2022-10-19T14:19:40;99150.59;;;10.06;71.52
28510;BME280;15723;55.684;37.928;2022-10-19T14:25:14;99163.69;;;9.76;71.78
28510;BME280;15723;55.684;37.928;2022-10-19T14:27:41;99152.72;;;9.64;72.81
28510;BME280;15723;55.684;37.928;2022-10-19T14:30:34;99155.81;;;9.34;73.50
28510;BME280;15723;55.684;37.928;2022-10-19T14:33:06;99151.88;;;9.77;73.49
28510;BME280;15723;55.684;37.928;2022-10-19T14:35:36;99158.28;;;9.99;72.35
28510;BME280;15723;55.684;37.928;2022-10-19T14:38:07;99166.06;;;10.17;71.23
28510;BME280;15723;55.684;37.928;2022-10-19T14:40:38;99168.22;;;10.24;71.20
28510;BME280;15723;55.684;37.928;2022-10-19T14:43:32;99169.97;;;9.63;72.96
28510;BME280;15723;55.684;37.928;2022-10-19T14:48:45;99169.56;;;9.57;73.61
28510;BME280;15723;55.684;37.928;2022-10-19T14:51:29;99176.38;;;9.75;72.22
28510;BME280;15723;55.684;37.928;2022-10-19T14:56:32;99167.91;;;10.16;72.33
28510;BME280;15723;55.684;37.928;2022-10-19T14:59:17;99166.16;;;10.28;71.71
28510;BME280;15723;55.684;37.928;2022-10-19T15:01:49;99176.66;;;9.83;72.81
28510;BME280;15723;55.684;37.928;2022-10-19T15:04:19;99180.78;;;9.89;72.49
28510;BME280;15723;55.684;37.928;2022-10-19T15:06:48;99187.53;;;9.58;74.05
28510;BME280;15723;55.684;37.928;2022-10-19T15:09:34;99180.28;;;9.20;75.68
28510;BME280;15723;55.684;37.928;2022-10-19T15:12:07;99181.81;;;9.37;75.42